createdAt,value
2022-12-13T00:02:14.674Z,10.75
2022-12-13T00:04:44.586Z,10.70
2022-12-13T00:07:14.427Z,8.57
2022-12-13T00:09:44.718Z,8.05
2022-12-13T00:12:14.593Z,8.43
2022-12-13T00:14:44.438Z,7.95
2022-12-13T00:17:16.864Z,8.00
2022-12-13T00:19:46.796Z,8.73
2022-12-13T00:22:17.087Z,8.27
2022-12-13T00:24:47.044Z,8.63
2022-12-13T00:27:16.951Z,9.18
2022-12-13T00:29:46.830Z,8.02
2022-12-13T00:32:19.376Z,9.63
2022-12-13T00:34:49.310Z,8.80
2022-12-13T00:37:19.268Z,8.27
2022-12-13T00:39:49.122Z,8.90
2022-12-13T00:42:19.002Z,8.90
2022-12-13T00:44:48.837Z,9.35
2022-12-13T00:47:22.412Z,8.75
2022-12-13T00:49:52.287Z,9.13
2022-12-13T00:52:22.154Z,8.85
2022-12-13T00:54:52.002Z,8.48
2022-12-13T00:57:21.883Z,9.32
2022-12-13T00:59:51.738Z,8.65
2022-12-13T01:02:24.246Z,10.77
2022-12-13T01:04:54.372Z,9.43
2022-12-13T01:07:24.339Z,10.15
2022-12-13T01:09:54.229Z,9.45
2022-12-13T01:12:24.194Z,9.30
2022-12-13T01:14:56.207Z,10.15
2022-12-13T01:17:30.766Z,9.73
2022-12-13T01:20:00.617Z,8.97
2022-12-13T01:22:30.522Z,10.02
2022-12-13T01:25:00.355Z,9.45
2022-12-13T01:27:30.239Z,10.25
2022-12-13T01:30:00.127Z,10.05
2022-12-13T01:32:32.590Z,10.98
2022-12-13T01:35:02.461Z,11.45
2022-12-13T01:37:32.306Z,10.07
2022-12-13T01:40:15.919Z,9.32
2022-12-13T01:42:46.602Z,9.60
2022-12-13T01:45:29.524Z,9.85
2022-12-13T01:48:05.166Z,9.77
2022-12-13T01:50:39.634Z,9.93
2022-12-13T01:53:12.967Z,9.07
2022-12-13T01:55:43.517Z,9.27
2022-12-13T01:58:14.711Z,9.43
2022-12-13T02:00:45.513Z,10.05
2022-12-13T02:03:21.487Z,9.18
2022-12-13T02:06:00.413Z,10.57
2022-12-13T02:08:31.448Z,8.65
2022-12-13T02:11:07.506Z,8.73
2022-12-13T02:13:37.371Z,8.10
2022-12-13T02:16:22.234Z,7.97
2022-12-13T02:19:26.439Z,8.20
2022-12-13T02:22:09.369Z,7.68
2022-12-13T02:25:07.292Z,7.68
2022-12-13T02:28:31.581Z,8.43
2022-12-13T02:31:05.103Z,8.07
2022-12-13T02:33:47.893Z,7.43
2022-12-13T02:36:26.213Z,7.50
2022-12-13T02:39:01.425Z,7.65
2022-12-13T02:41:40.152Z,7.90
2022-12-13T02:44:22.756Z,7.70
2022-12-13T02:47:02.054Z,7.90
2022-12-13T02:49:36.225Z,7.55
2022-12-13T02:52:09.968Z,7.78
2022-12-13T02:54:42.718Z,8.00
2022-12-13T02:57:35.576Z,8.50
2022-12-13T03:00:10.833Z,7.53
2022-12-13T03:02:58.074Z,7.50
2022-12-13T03:05:51.283Z,7.65
2022-12-13T03:08:28.622Z,7.50
2022-12-13T03:11:09.090Z,14.00
2022-12-13T03:13:49.548Z,20.13
2022-12-13T03:16:36.538Z,27.20
2022-12-13T03:19:12.237Z,31.45
2022-12-13T03:21:47.668Z,20.15
2022-12-13T03:24:21.050Z,27.48
2022-12-13T03:26:52.935Z,11.93
2022-12-13T03:29:24.161Z,32.13
2022-12-13T03:31:54.918Z,11.50
2022-12-13T03:34:27.347Z,12.30
2022-12-13T03:37:15.149Z,18.15
2022-12-13T03:39:45.166Z,18.17
2022-12-13T03:42:15.116Z,17.40
2022-12-13T03:44:45.034Z,14.18
2022-12-13T03:47:15.428Z,17.95
2022-12-13T03:49:54.283Z,16.00
2022-12-13T03:52:24.363Z,11.50
2022-12-13T03:54:54.224Z,18.65
2022-12-13T03:57:24.094Z,15.82
2022-12-13T03:59:53.931Z,10.68
2022-12-13T04:02:30.978Z,12.18
2022-12-13T04:05:04.042Z,11.07
2022-12-13T04:07:34.329Z,10.55
2022-12-13T04:10:25.260Z,10.05
2022-12-13T04:13:07.178Z,9.82
2022-12-13T04:15:37.166Z,10.57
2022-12-13T04:18:07.821Z,10.18
2022-12-13T04:20:40.468Z,10.02
2022-12-13T04:23:10.727Z,9.45
2022-12-13T04:25:40.916Z,10.35
2022-12-13T04:28:11.459Z,10.43
2022-12-13T04:30:41.353Z,10.40
2022-12-13T04:33:11.207Z,10.48
2022-12-13T04:35:43.632Z,10.27
2022-12-13T04:38:13.617Z,8.93
2022-12-13T04:40:43.431Z,10.75
2022-12-13T04:43:13.316Z,12.10
2022-12-13T04:45:43.544Z,10.43
2022-12-13T04:48:13.842Z,10.50
2022-12-13T04:51:04.406Z,9.05
2022-12-13T04:53:34.429Z,10.82
2022-12-13T04:56:06.896Z,10.00
2022-12-13T04:58:36.867Z,9.38
2022-12-13T05:01:11.218Z,10.20
2022-12-13T05:03:41.993Z,10.18
2022-12-13T05:06:26.904Z,9.80
2022-12-13T05:09:00.890Z,9.98
2022-12-13T05:11:35.576Z,16.15
2022-12-13T05:14:06.459Z,11.05
2022-12-13T05:16:39.089Z,10.15
2022-12-13T05:19:09.039Z,10.18
2022-12-13T05:21:41.470Z,10.93
2022-12-13T05:24:11.606Z,10.40
2022-12-13T05:26:41.466Z,10.73
2022-12-13T05:29:11.437Z,10.43
2022-12-13T05:31:41.305Z,10.25
2022-12-13T05:34:11.318Z,9.82
2022-12-13T05:36:43.758Z,10.07
2022-12-13T05:39:29.070Z,10.70
2022-12-13T05:42:02.873Z,11.02
2022-12-13T05:44:34.476Z,11.05
2022-12-13T05:47:04.589Z,11.15
2022-12-13T05:49:34.810Z,12.02
2022-12-13T05:52:07.323Z,10.05
2022-12-13T05:54:37.170Z,12.68
2022-12-13T05:57:12.975Z,10.85
2022-12-13T05:59:42.831Z,11.75
2022-12-13T06:02:16.862Z,11.20
2022-12-13T06:04:51.190Z,11.10
2022-12-13T06:07:23.674Z,9.90
2022-12-13T06:09:53.545Z,10.60
2022-12-13T06:12:43.266Z,10.80
2022-12-13T06:15:22.465Z,10.38
2022-12-13T06:17:53.024Z,11.25
2022-12-13T06:20:24.771Z,11.38
2022-12-13T06:22:57.503Z,9.68
2022-12-13T06:25:30.741Z,11.30
2022-12-13T06:28:02.234Z,9.57
2022-12-13T06:30:32.349Z,9.70
2022-12-13T06:33:02.263Z,10.10
2022-12-13T06:35:35.264Z,11.90
2022-12-13T06:38:12.032Z,10.63
2022-12-13T06:40:42.532Z,11.75
2022-12-13T06:43:12.574Z,10.65
2022-12-13T06:45:43.222Z,10.95
2022-12-13T06:48:16.307Z,10.80
2022-12-13T06:50:50.079Z,10.15
2022-12-13T06:53:24.900Z,11.43
2022-12-13T06:55:54.727Z,9.90
2022-12-13T06:58:24.966Z,11.88
2022-12-13T07:01:05.005Z,10.95
2022-12-13T07:03:35.845Z,11.40
2022-12-13T07:06:10.893Z,10.77
2022-12-13T07:08:43.952Z,11.57
2022-12-13T07:11:18.095Z,10.50
2022-12-13T07:13:48.242Z,11.23
2022-12-13T07:16:18.414Z,11.30
2022-12-13T07:18:48.355Z,11.00
2022-12-13T07:21:21.983Z,9.75
2022-12-13T07:23:55.531Z,10.88
2022-12-13T07:26:26.391Z,10.52
2022-12-13T07:28:56.219Z,10.77
2022-12-13T07:31:33.311Z,12.25
2022-12-13T07:34:03.579Z,11.18
2022-12-13T07:36:33.478Z,11.07
2022-12-13T07:39:05.982Z,10.50
2022-12-13T07:41:35.834Z,11.18
2022-12-13T07:44:05.751Z,10.82
2022-12-13T07:46:35.753Z,12.10
2022-12-13T07:49:06.344Z,11.57
2022-12-13T07:51:37.002Z,11.30
2022-12-13T07:54:11.079Z,11.15
2022-12-13T07:56:40.951Z,10.90
2022-12-13T07:59:11.779Z,10.40
2022-12-13T08:01:41.715Z,11.50
2022-12-13T08:04:11.947Z,11.88
2022-12-13T08:06:42.197Z,11.50
2022-12-13T08:09:14.607Z,12.48
2022-12-13T08:11:44.438Z,10.90
2022-12-13T08:14:14.550Z,13.10
2022-12-13T08:16:44.444Z,13.60
2022-12-13T08:19:14.549Z,12.48
2022-12-13T08:21:54.490Z,18.83
2022-12-13T08:24:28.421Z,15.88
2022-12-13T08:27:01.381Z,14.77
2022-12-13T08:29:33.639Z,12.15
2022-12-13T08:32:06.411Z,11.95
2022-12-13T08:34:36.308Z,12.65
2022-12-13T08:37:06.582Z,13.27
2022-12-13T08:39:40.857Z,11.45
2022-12-13T08:42:15.920Z,12.43
2022-12-13T08:44:49.264Z,12.73
2022-12-13T08:47:23.128Z,12.15
2022-12-13T08:50:01.481Z,11.88
2022-12-13T08:52:39.709Z,12.65
2022-12-13T08:55:14.009Z,12.55
2022-12-13T08:57:45.598Z,12.90
2022-12-13T09:00:18.510Z,11.80
2022-12-13T09:02:48.644Z,12.50
2022-12-13T09:05:33.481Z,12.15
2022-12-13T09:08:23.992Z,12.57
2022-12-13T09:11:10.540Z,11.77
2022-12-13T09:13:51.295Z,11.18
2022-12-13T09:16:24.816Z,11.95
2022-12-13T09:18:56.079Z,13.00
2022-12-13T09:21:31.928Z,11.57
2022-12-13T09:24:02.820Z,13.52
2022-12-13T09:26:38.406Z,11.70
2022-12-13T09:29:11.345Z,13.43
2022-12-13T09:31:41.659Z,13.38
2022-12-13T09:34:11.815Z,13.10
2022-12-13T09:36:42.275Z,14.40
2022-12-13T09:39:12.260Z,12.15
2022-12-13T09:41:49.840Z,13.20
2022-12-13T09:44:30.482Z,13.05
2022-12-13T09:47:13.399Z,12.65
2022-12-13T09:49:52.755Z,14.02
2022-12-13T09:52:33.419Z,12.60
2022-12-13T09:55:07.925Z,13.27
2022-12-13T09:57:43.242Z,13.77
2022-12-13T10:00:20.717Z,12.38
2022-12-13T10:02:53.880Z,13.48
2022-12-13T10:05:34.540Z,13.68
2022-12-13T10:08:11.676Z,14.00
2022-12-13T10:10:41.567Z,12.77
2022-12-13T10:13:21.264Z,13.52
2022-12-13T10:15:57.594Z,13.25
2022-12-13T10:18:36.498Z,12.65
2022-12-13T10:21:10.987Z,13.38
2022-12-13T10:24:15.058Z,13.15
2022-12-13T10:26:39.447Z,12.82
2022-12-13T10:29:12.303Z,13.27
2022-12-13T10:31:45.346Z,13.40
2022-12-13T10:34:25.221Z,13.27
2022-12-13T10:36:59.588Z,10.98
2022-12-13T10:42:22.773Z,10.73
2022-12-13T10:45:22.982Z,11.20
2022-12-13T10:47:56.094Z,11.95
2022-12-13T10:50:31.959Z,11.38
2022-12-13T10:53:03.463Z,11.10
2022-12-13T10:55:36.187Z,12.63
2022-12-13T10:58:09.885Z,11.40
2022-12-13T11:00:46.516Z,12.40
2022-12-13T11:03:33.615Z,13.27
2022-12-13T11:06:08.912Z,11.43
2022-12-13T11:08:39.260Z,11.95
2022-12-13T11:11:12.503Z,12.20
2022-12-13T11:13:48.171Z,12.35
2022-12-13T11:16:30.590Z,11.85
2022-12-13T11:19:04.829Z,12.27
2022-12-13T11:21:37.549Z,12.55
2022-12-13T11:24:10.908Z,12.75
2022-12-13T11:26:48.777Z,12.23
2022-12-13T11:29:48.947Z,12.40
2022-12-13T11:32:35.963Z,13.52
2022-12-13T11:35:17.508Z,13.68
2022-12-13T11:37:57.357Z,13.60
2022-12-13T11:40:31.940Z,13.95
2022-12-13T11:43:10.159Z,12.48
2022-12-13T11:45:46.663Z,13.65
2022-12-13T11:48:27.209Z,13.60
2022-12-13T11:50:59.340Z,13.82
2022-12-13T11:53:34.046Z,13.77
2022-12-13T11:59:05.931Z,12.25
2022-12-13T12:01:45.507Z,13.48
2022-12-13T12:04:26.547Z,14.45
2022-12-13T12:07:18.144Z,12.40
2022-12-13T12:09:56.519Z,12.57
2022-12-13T12:12:34.191Z,12.25
2022-12-13T12:15:15.665Z,12.77
2022-12-13T12:17:46.365Z,13.10
2022-12-13T12:20:24.946Z,12.90
2022-12-13T12:23:06.817Z,12.00
2022-12-13T12:25:49.041Z,13.15
2022-12-13T12:28:31.280Z,11.65
2022-12-13T12:31:11.840Z,11.77
2022-12-13T12:33:53.461Z,12.48
2022-12-13T12:36:52.177Z,11.88
2022-12-13T12:39:37.698Z,13.95
2022-12-13T12:42:56.560Z,13.85
2022-12-13T12:45:56.799Z,12.73
2022-12-13T12:48:57.037Z,12.15
2022-12-13T12:51:42.379Z,15.60
2022-12-13T12:54:32.709Z,12.18
2022-12-13T12:57:14.827Z,14.35
2022-12-13T13:00:02.012Z,11.98
2022-12-13T13:02:41.723Z,11.32
2022-12-13T13:05:20.069Z,11.55
2022-12-13T13:07:59.758Z,12.52
2022-12-13T13:10:30.383Z,18.48
2022-12-13T13:13:11.773Z,12.68
2022-12-13T13:15:59.065Z,11.77
2022-12-13T13:18:50.985Z,11.40
2022-12-13T13:21:49.921Z,12.43
2022-12-13T13:24:27.809Z,12.23
2022-12-13T13:27:00.353Z,12.25
2022-12-13T13:29:43.931Z,11.25
2022-12-13T13:32:31.838Z,11.48
2022-12-13T13:35:50.637Z,10.77
2022-12-13T13:38:52.312Z,12.07
2022-12-13T13:42:10.374Z,11.15
2022-12-13T13:45:21.067Z,11.80
2022-12-13T13:48:14.901Z,12.20
2022-12-13T13:51:29.069Z,11.73
2022-12-13T13:54:31.035Z,11.02
2022-12-13T14:01:24.329Z,13.27
2022-12-13T14:04:48.097Z,12.75
2022-12-13T14:08:12.203Z,13.48
2022-12-13T14:11:03.598Z,14.40
2022-12-13T14:14:21.847Z,14.05
2022-12-13T14:17:32.646Z,14.45
2022-12-13T14:20:46.902Z,12.45
2022-12-13T14:23:34.087Z,13.05
2022-12-13T14:26:39.888Z,12.13
2022-12-13T14:31:50.406Z,11.65
2022-12-13T14:34:27.143Z,12.85
2022-12-13T14:37:03.207Z,12.27
2022-12-13T14:39:35.020Z,12.73
2022-12-13T14:42:25.121Z,14.23
2022-12-13T14:44:58.265Z,12.50
2022-12-13T14:47:28.426Z,13.32
2022-12-13T14:49:58.570Z,12.80
2022-12-13T14:52:32.146Z,12.20
2022-12-13T14:55:04.696Z,12.13
2022-12-13T14:57:37.691Z,12.02
2022-12-13T15:00:31.668Z,12.13
2022-12-13T15:03:04.119Z,11.20
2022-12-13T15:05:38.774Z,13.00
2022-12-13T15:08:11.881Z,13.45
2022-12-13T15:10:48.104Z,14.40
2022-12-13T15:13:29.738Z,14.52
2022-12-13T15:16:10.735Z,13.40
2022-12-13T15:18:41.385Z,11.95
2022-12-13T15:21:25.186Z,14.02
2022-12-13T15:23:56.563Z,12.88
2022-12-13T15:26:30.124Z,11.93
2022-12-13T15:29:09.854Z,12.85
2022-12-13T15:31:43.286Z,11.65
2022-12-13T15:34:35.411Z,13.20
2022-12-13T15:37:08.323Z,13.10
2022-12-13T15:40:03.621Z,12.40
2022-12-13T15:42:37.073Z,12.80
2022-12-13T15:45:10.817Z,14.40
2022-12-13T15:47:48.711Z,12.85
2022-12-13T15:50:37.630Z,13.13
2022-12-13T15:53:23.314Z,11.80
2022-12-13T15:55:54.286Z,13.75
2022-12-13T15:58:37.157Z,12.95
2022-12-13T16:01:08.096Z,12.48
2022-12-13T16:03:46.979Z,13.35
2022-12-13T16:06:22.136Z,15.93
2022-12-13T16:08:54.662Z,14.82
2022-12-13T16:11:34.131Z,14.50
2022-12-13T16:14:37.996Z,13.52
2022-12-13T16:17:16.672Z,14.40
2022-12-13T16:19:49.357Z,13.68
2022-12-13T16:22:21.806Z,13.68
2022-12-13T16:24:52.185Z,13.23
2022-12-13T16:27:22.077Z,14.18
2022-12-13T16:29:51.958Z,12.60
2022-12-13T16:32:22.024Z,14.52
2022-12-13T16:34:54.517Z,14.20
2022-12-13T16:37:27.549Z,16.38
2022-12-13T16:39:59.522Z,15.90
2022-12-13T16:42:30.753Z,15.77
2022-12-13T16:45:40.199Z,17.00
2022-12-13T16:47:51.056Z,18.75
2022-12-13T16:50:24.246Z,17.70
2022-12-13T16:52:54.138Z,19.60
2022-12-13T16:55:24.144Z,20.50
2022-12-13T16:58:01.752Z,20.02
2022-12-13T17:00:32.875Z,19.17
2022-12-13T17:03:03.530Z,19.80
2022-12-13T17:05:38.625Z,19.45
2022-12-13T17:08:08.612Z,16.83
2022-12-13T17:10:39.643Z,17.48
2022-12-13T17:13:09.665Z,15.80
2022-12-13T17:15:39.996Z,15.82
2022-12-13T17:18:10.184Z,15.73
2022-12-13T17:20:42.592Z,13.75
2022-12-13T17:23:17.829Z,15.40
2022-12-13T17:25:48.038Z,16.35
2022-12-13T17:28:28.747Z,18.80
2022-12-13T17:31:08.933Z,20.30
2022-12-13T17:33:39.065Z,18.50
2022-12-13T17:36:14.246Z,22.80
2022-12-13T17:38:46.371Z,17.85
2022-12-13T17:41:18.196Z,15.23
2022-12-13T17:43:48.468Z,15.05
2022-12-13T17:46:20.674Z,14.90
2022-12-13T17:48:50.581Z,14.52
2022-12-13T17:51:23.033Z,14.40
2022-12-13T17:53:52.877Z,14.23
2022-12-13T17:56:23.991Z,17.08
2022-12-13T17:58:53.831Z,16.95
2022-12-13T18:01:26.644Z,16.60
2022-12-13T18:03:59.490Z,16.30
2022-12-13T18:06:32.018Z,16.55
2022-12-13T18:09:02.393Z,17.58
2022-12-13T18:11:34.029Z,15.65
2022-12-13T18:14:05.306Z,15.60
2022-12-13T18:16:38.345Z,14.90
2022-12-13T18:19:10.753Z,14.60
2022-12-13T18:21:43.765Z,17.10
2022-12-13T18:24:14.961Z,17.83
2022-12-13T18:26:44.822Z,17.15
2022-12-13T18:29:14.654Z,16.60
2022-12-13T18:31:44.729Z,15.10
2022-12-13T18:34:15.085Z,14.18
2022-12-13T18:36:47.517Z,14.65
2022-12-13T18:39:17.412Z,16.00
2022-12-13T18:41:47.376Z,17.25
2022-12-13T18:44:17.222Z,15.50
2022-12-13T18:46:47.678Z,15.80
2022-12-13T18:49:17.787Z,17.92
2022-12-13T18:51:50.281Z,20.55
2022-12-13T18:54:20.168Z,22.75
2022-12-13T18:56:50.037Z,21.33
2022-12-13T18:59:19.894Z,23.10
2022-12-13T19:01:49.775Z,21.00
2022-12-13T19:04:19.602Z,16.80
2022-12-13T19:06:52.596Z,15.75
2022-12-13T19:09:22.445Z,16.00
2022-12-13T19:11:52.416Z,14.95
2022-12-13T19:14:26.899Z,15.20
2022-12-13T19:16:57.440Z,15.82
2022-12-13T19:19:27.283Z,15.10
2022-12-13T19:21:59.718Z,15.52
2022-12-13T19:24:30.002Z,16.13
2022-12-13T19:26:59.827Z,15.98
2022-12-13T19:29:29.700Z,15.57
2022-12-13T19:32:00.693Z,16.55
2022-12-13T19:34:30.625Z,17.02
2022-12-13T19:37:06.300Z,16.67
2022-12-13T19:39:37.431Z,17.38
2022-12-13T19:42:07.506Z,15.95
2022-12-13T19:44:37.347Z,15.65
2022-12-13T19:47:07.325Z,15.57
2022-12-13T19:49:37.194Z,14.70
2022-12-13T19:52:09.679Z,15.55
2022-12-13T19:54:39.554Z,14.25
2022-12-13T19:57:09.398Z,15.48
2022-12-13T19:59:39.298Z,14.25
2022-12-13T20:02:09.631Z,14.23
2022-12-13T20:04:39.475Z,15.45
2022-12-13T20:07:11.918Z,16.23
2022-12-13T20:09:42.399Z,15.13
2022-12-13T20:12:12.282Z,15.30
2022-12-13T20:14:42.136Z,13.50
2022-12-13T20:17:11.991Z,14.07
2022-12-13T20:19:42.016Z,13.80
2022-12-13T20:22:15.552Z,15.40
2022-12-13T20:24:45.376Z,13.35
2022-12-13T20:27:18.776Z,14.57
2022-12-13T20:29:50.377Z,14.10
2022-12-13T20:32:20.957Z,12.98
2022-12-13T20:34:54.802Z,14.00
2022-12-13T20:37:28.019Z,13.30
2022-12-13T20:39:58.005Z,14.05
2022-12-13T20:42:28.114Z,13.85
2022-12-13T20:44:58.174Z,12.98
2022-12-13T20:47:28.150Z,13.82
2022-12-13T20:49:57.975Z,13.25
2022-12-13T20:52:30.376Z,14.57
2022-12-13T20:55:00.206Z,14.15
2022-12-13T20:57:30.035Z,17.27
2022-12-13T20:59:59.870Z,15.88
2022-12-13T21:02:30.019Z,15.95
2022-12-13T21:04:59.912Z,14.20
2022-12-13T21:07:44.841Z,15.35
2022-12-13T21:10:18.340Z,14.80
2022-12-13T21:12:48.276Z,14.32
2022-12-13T21:15:18.394Z,14.57
2022-12-13T21:17:48.231Z,13.57
2022-12-13T21:20:18.374Z,14.98
2022-12-13T21:22:50.856Z,15.55
2022-12-13T21:25:20.674Z,15.45
2022-12-13T21:27:50.490Z,13.93
2022-12-13T21:30:20.519Z,15.88
2022-12-13T21:32:52.873Z,14.30
2022-12-13T21:35:22.907Z,15.63
2022-12-13T21:37:55.385Z,15.23
2022-12-13T21:40:29.327Z,16.35
2022-12-13T21:42:59.155Z,15.10
2022-12-13T21:45:29.024Z,16.33
2022-12-13T21:47:58.886Z,18.70
2022-12-13T21:50:30.133Z,17.98
2022-12-13T21:53:04.908Z,18.02
2022-12-13T21:55:39.429Z,19.05
2022-12-13T22:00:59.948Z,16.23
2022-12-13T22:03:29.902Z,15.02
2022-12-13T22:05:59.737Z,13.93
2022-12-13T22:08:32.186Z,14.25
2022-12-13T22:11:21.322Z,14.52
2022-12-13T22:13:51.605Z,12.57
2022-12-13T22:16:21.507Z,13.75
2022-12-13T22:18:51.350Z,14.45
2022-12-13T22:21:21.204Z,13.38
2022-12-13T22:23:55.859Z,15.20
2022-12-13T22:28:56.088Z,13.85
2022-12-13T22:31:29.656Z,13.45
2022-12-13T22:34:00.161Z,14.88
2022-12-13T22:36:29.987Z,14.55
2022-12-13T22:39:02.426Z,11.27
2022-12-13T22:41:32.301Z,13.40
2022-12-13T22:44:02.272Z,14.10
2022-12-13T22:46:32.113Z,17.17
2022-12-13T22:49:01.926Z,14.25
2022-12-13T22:51:31.761Z,13.77
2022-12-13T22:54:04.382Z,15.25
2022-12-13T22:56:34.703Z,13.73
2022-12-13T22:59:07.889Z,12.02
2022-12-13T23:01:42.422Z,13.80
2022-12-13T23:04:17.915Z,14.20
2022-12-13T23:06:47.780Z,13.95
2022-12-13T23:09:20.442Z,13.77
2022-12-13T23:12:02.822Z,13.55
2022-12-13T23:14:35.014Z,12.20
2022-12-13T23:17:06.348Z,14.38
2022-12-13T23:19:49.004Z,12.95
2022-12-13T23:22:21.652Z,12.65
2022-12-13T23:24:55.360Z,14.27
2022-12-13T23:27:26.254Z,12.37
2022-12-13T23:29:56.136Z,11.77
2022-12-13T23:32:26.050Z,12.82
2022-12-13T23:34:55.917Z,12.73
2022-12-13T23:37:25.765Z,13.80
2022-12-13T23:39:58.154Z,14.68
2022-12-13T23:42:31.391Z,14.38
2022-12-13T23:45:01.254Z,13.15
2022-12-13T23:47:31.089Z,13.52
2022-12-13T23:50:00.902Z,13.30
2022-12-13T23:52:30.738Z,11.98
2022-12-13T23:55:03.154Z,13.00
2022-12-13T23:57:32.972Z,14.13
